Vilhena Airport
SBVH : now visible

Airfield :











YOU CAN JOIN US ON...

 
LOGIN :

Register | Disclaimer

   EN    FR    IT 

 









Legend :    VFR   Marginal VFR   IFR   Intensive IFR   Very Intensive IFR
Visi :
Ceiling :
>= 8 km
>= 3000ft
5 to 8 km
1000 to 3000 ft
1500m to 5 km
500 to 1000 ft
800 to 1500m
200 to 500 ft
< 800m
< 200 ft
Symbols :   Thunderstorms  Fog  Heavy snow  Heavy precipitations  Wind > 20 kt






- Airport Elevation : 2018 ft
- IATA code : BVH


SBVH - Vilhena

CURRENT METAR :
  • 191900Z 22010G20KT 180V260 9000 -TSRA BKN012 BKN024 FEW035CB 24/22 Q1011

EXPIRED METARs :
  • 191800Z 23004KT 160V270 9999 TS VCSH SCT027 FEW040CB 28/23 Q1012
  • 191700Z 30005KT 280V340 9999 FEW040 28/22 Q1013
  • 191600Z VRB02KT 9999 FEW040 28/22 Q1014

TAF TAF SBVH
Valid from the 19 at 18:00 until the 20 at 06:00 UTC


191500Z 1918/2006 32010KT 9999 TS BKN020 FEW030CB TX29/1918Z TN23/2006Z
PROB40 1918/1922 27015KT 5000 TSRA BKN017 FEW035CB
BECMG 1922/1924 10010KT NSW BKN017
BECMG 2001/2003 35005KT 8000 SCT012 RMK PGS



MET'MAP, your aeronautical weather chart ! - Copyright ORBIFLY December 2007 - Disclaimer

ORBIFLY MET'MAP TEAM :

Programming & Development : Alexandra Zaïnal
Concept & original design : Baudouin d'Aumeries
Assistance for programming : Marc-Olivier Méhu
Technical & hardware support : Manuel Goepfert

Contact : metmap@orbifly.com




SOURCES & CREDITS :

   NOAA       Earth
Advisory